Time;durP1;ratioP1;P1;durP2;ratioP2;P2;SDS_P1;SDS_P2;PMS_P1;PMS_P2;Temp;Humidity;BMP_temperature;BMP_pressure;BME280_temperature;BME280_humidity;BME280_pressure;Samples;Min_cycle;Max_cycle;Signal;HPM_P1;HPM_P2
2022/06/08 00:02:05;;;;;;;9.65;5.78;;;11.30;99.90;;;;;;5063346;28;20506;-44
2022/06/08 00:04:32;;;;;;;8.75;4.63;;;11.30;99.90;;;;;;5053470;28;20084;-43
2022/06/08 00:06:59;;;;;;;8.48;4.65;;;11.20;99.90;;;;;;5053450;28;20114;-43
2022/06/08 00:09:27;;;;;;;8.75;5.15;;;11.20;99.90;;;;;;5053974;28;20394;-44
2022/06/08 00:11:55;;;;;;;7.18;4.50;;;11.20;99.90;;;;;;5054241;28;20056;-42
2022/06/08 00:14:21;;;;;;;6.05;4.60;;;11.20;99.90;;;;;;5053528;28;20047;-44
2022/06/08 00:16:48;;;;;;;7.53;4.55;;;11.20;99.90;;;;;;5053890;28;20049;-43
2022/06/08 00:19:15;;;;;;;6.43;4.97;;;11.20;99.90;;;;;;5062370;28;20497;-43
2022/06/08 00:21:42;;;;;;;8.63;4.88;;;11.10;99.90;;;;;;5066586;28;20075;-44
2022/06/08 00:24:09;;;;;;;8.40;5.47;;;11.10;99.90;;;;;;5065791;28;20379;-43
2022/06/08 00:26:37;;;;;;;7.22;4.95;;;11.10;99.90;;;;;;5056671;28;20057;-43
2022/06/08 00:29:04;;;;;;;5.93;4.85;;;11.10;99.90;;;;;;5054073;28;20434;-43
2022/06/08 00:31:31;;;;;;;6.95;4.93;;;11.00;99.90;;;;;;5065446;28;20053;-44
2022/06/08 00:33:58;;;;;;;7.57;4.70;;;11.00;99.90;;;;;;5058074;28;20188;-43
2022/06/08 00:36:24;;;;;;;7.47;5.25;;;11.00;99.90;;;;;;5071400;28;20053;-43
2022/06/08 00:38:51;;;;;;;7.43;5.38;;;10.90;99.90;;;;;;5063369;28;20048;-43
2022/06/08 00:41:27;;;;;;;6.85;5.45;;;10.90;99.90;;;;;;5055866;28;20048;-43
2022/06/08 00:43:55;;;;;;;5.80;4.20;;;10.90;99.90;;;;;;5052198;28;20390;-43
2022/06/08 00:46:22;;;;;;;6.93;5.32;;;10.90;99.90;;;;;;5056630;28;20090;-43
2022/06/08 00:48:50;;;;;;;7.90;5.32;;;10.90;99.90;;;;;;5059247;28;20436;-43
2022/06/08 00:51:17;;;;;;;6.93;5.20;;;10.90;99.90;;;;;;5052546;28;20451;-44
2022/06/08 00:53:46;;;;;;;6.35;4.60;;;10.90;99.90;;;;;;5056089;28;20488;-43
2022/06/08 00:56:15;;;;;;;9.98;5.70;;;10.80;99.90;;;;;;5073695;28;20113;-43
2022/06/08 00:58:42;;;;;;;8.35;5.00;;;10.80;99.90;;;;;;5072527;28;20118;-43
2022/06/08 01:01:11;;;;;;;8.18;5.95;;;10.80;99.90;;;;;;5072519;28;20052;-43
2022/06/08 01:03:38;;;;;;;7.43;5.07;;;10.80;99.90;;;;;;5062331;28;20061;-44
2022/06/08 01:06:06;;;;;;;12.68;7.28;;;10.70;99.90;;;;;;5055090;28;20053;-43
2022/06/08 01:08:36;;;;;;;10.95;5.80;;;10.70;99.90;;;;;;5072395;28;20048;-43
2022/06/08 01:11:04;;;;;;;9.30;6.13;;;10.80;99.90;;;;;;5052560;28;20444;-44
2022/06/08 01:13:34;;;;;;;8.48;5.53;;;10.70;99.90;;;;;;5058224;28;20048;-43
2022/06/08 01:16:01;;;;;;;9.18;6.35;;;10.70;99.90;;;;;;5054157;28;20049;-43
2022/06/08 01:18:29;;;;;;;7.93;5.85;;;10.70;99.90;;;;;;5073481;28;20491;-43
2022/06/08 01:21:15;;;;;;;9.35;5.55;;;10.70;99.90;;;;;;5056050;28;20048;-43
2022/06/08 01:23:43;;;;;;;8.25;6.10;;;10.70;99.90;;;;;;5058572;28;20053;-43
2022/06/08 01:26:14;;;;;;;8.00;6.13;;;10.70;99.90;;;;;;5051339;28;20151;-43
2022/06/08 01:28:45;;;;;;;6.55;5.53;;;10.70;99.90;;;;;;5055658;28;20443;-43
2022/06/08 01:31:25;;;;;;;8.15;5.80;;;10.70;99.90;;;;;;5059214;28;20088;-43
2022/06/08 01:34:02;;;;;;;18.08;8.20;;;10.70;99.90;;;;;;5052855;28;20089;-44
2022/06/08 01:36:55;;;;;;;10.63;8.13;;;10.70;99.90;;;;;;5080221;28;20060;-43
2022/06/08 01:39:28;;;;;;;14.07;8.98;;;10.70;99.90;;;;;;5063348;28;20057;-43
2022/06/08 01:42:10;;;;;;;12.77;10.20;;;10.70;99.90;;;;;;5053235;28;20441;-44
2022/06/08 01:47:52;;;;;;;20.80;13.45;;;10.70;99.90;;;;;;5061092;28;20489;-44
2022/06/08 01:50:21;;;;;;;12.73;10.27;;;10.70;99.90;;;;;;5054565;28;20122;-43
2022/06/08 01:52:51;;;;;;;16.35;10.32;;;10.70;99.90;;;;;;5052588;28;20605;-44
2022/06/08 01:55:21;;;;;;;25.80;15.82;;;10.70;99.90;;;;;;5051495;28;20053;-43
2022/06/08 01:57:55;;;;;;;17.05;11.93;;;10.80;99.90;;;;;;5051355;28;20060;-43
2022/06/08 02:00:23;;;;;;;26.48;16.83;;;10.80;99.90;;;;;;5064728;28;20060;-43
2022/06/08 02:02:55;;;;;;;29.60;16.98;;;10.80;99.90;;;;;;5057147;28;20572;-43
2022/06/08 02:05:23;;;;;;;23.60;16.30;;;10.90;99.90;;;;;;5078267;28;20493;-43
2022/06/08 02:07:53;;;;;;;22.30;15.00;;;10.90;99.90;;;;;;5053642;28;20049;-43
2022/06/08 02:10:23;;;;;;;27.05;17.10;;;10.90;99.90;;;;;;5065495;28;20409;-44
2022/06/08 02:12:52;;;;;;;26.17;17.77;;;11.00;99.90;;;;;;5069046;28;20076;-43
2022/06/08 02:15:20;;;;;;;23.25;16.13;;;11.10;99.90;;;;;;5055782;28;20048;-43
2022/06/08 02:17:50;;;;;;;26.77;17.10;;;11.10;99.90;;;;;;5069918;28;20094;-43
2022/06/08 02:20:20;;;;;;;27.13;18.75;;;11.10;99.90;;;;;;5054921;28;20061;-43
2022/06/08 02:22:50;;;;;;;28.30;18.10;;;11.10;99.90;;;;;;5051424;28;20049;-44
2022/06/08 02:25:18;;;;;;;27.38;18.38;;;11.20;99.90;;;;;;5053620;28;20098;-43
2022/06/08 02:27:49;;;;;;;39.30;19.80;;;11.30;99.90;;;;;;5056945;28;20099;-43
2022/06/08 02:30:17;;;;;;;32.45;19.67;;;11.30;99.90;;;;;;5056684;28;20048;-43
2022/06/08 02:35:35;;;;;;;28.20;18.20;;;11.40;99.90;;;;;;5053021;28;20053;-43
2022/06/08 02:38:03;;;;;;;29.40;18.65;;;11.50;99.90;;;;;;5053531;28;20451;-43
2022/06/08 02:40:32;;;;;;;29.17;17.92;;;11.50;99.90;;;;;;5050962;28;20049;-43
2022/06/08 02:43:02;;;;;;;27.38;19.17;;;11.50;99.90;;;;;;5051678;28;20129;-44
2022/06/08 02:45:32;;;;;;;34.30;19.63;;;11.60;99.90;;;;;;5058940;28;20059;-43
2022/06/08 02:48:02;;;;;;;30.30;19.27;;;11.60;99.90;;;;;;5058351;28;20053;-43
2022/06/08 02:50:29;;;;;;;25.17;17.30;;;11.60;99.90;;;;;;5057071;28;20052;-43
2022/06/08 02:53:07;;;;;;;26.25;16.88;;;11.70;99.90;;;;;;5051015;28;20063;-44
2022/06/08 02:55:41;;;;;;;28.20;19.00;;;11.70;99.90;;;;;;5050928;28;20099;-44
2022/06/08 02:58:12;;;;;;;23.98;17.25;;;11.70;99.90;;;;;;5058667;28;20564;-43
2022/06/08 03:00:41;;;;;;;26.60;16.88;;;11.80;99.90;;;;;;5067565;28;20044;-43
2022/06/08 03:03:10;;;;;;;25.13;17.73;;;11.80;99.90;;;;;;5071081;28;20441;-43
2022/06/08 03:05:40;;;;;;;25.10;18.58;;;11.70;99.90;;;;;;5058399;28;20089;-43
2022/06/08 03:08:11;;;;;;;28.63;18.15;;;11.80;99.90;;;;;;5072335;28;20091;-44
2022/06/08 03:10:40;;;;;;;24.73;18.00;;;11.80;99.90;;;;;;5070910;28;20052;-44
2022/06/08 03:13:09;;;;;;;24.85;18.33;;;11.80;99.90;;;;;;5070076;28;20400;-44
2022/06/08 03:15:36;;;;;;;26.40;18.40;;;11.80;99.90;;;;;;5054899;28;20485;-43
2022/06/08 03:18:02;;;;;;;28.48;20.15;;;11.80;99.90;;;;;;5075845;28;20048;-43
2022/06/08 03:20:29;;;;;;;26.50;18.77;;;11.80;99.90;;;;;;5073137;28;20092;-43
2022/06/08 03:22:56;;;;;;;29.35;19.23;;;11.80;99.90;;;;;;5070873;28;20044;-44
2022/06/08 03:25:23;;;;;;;28.83;17.67;;;11.80;99.90;;;;;;5066579;28;20040;-43
2022/06/08 03:27:50;;;;;;;30.90;20.33;;;11.80;99.90;;;;;;5053873;28;20493;-44
2022/06/08 03:30:19;;;;;;;32.95;20.85;;;11.90;99.90;;;;;;5055458;28;20053;-43
2022/06/08 03:32:45;;;;;;;27.65;20.08;;;11.90;99.90;;;;;;5063167;28;20090;-43
2022/06/08 03:35:12;;;;;;;32.92;21.00;;;11.90;99.90;;;;;;5054866;28;20513;-44
2022/06/08 03:37:39;;;;;;;31.52;21.42;;;12.00;99.90;;;;;;5056798;28;20130;-43
2022/06/08 03:40:08;;;;;;;30.45;20.58;;;12.00;99.90;;;;;;5058102;28;20068;-43
2022/06/08 03:42:34;;;;;;;32.60;20.88;;;12.00;99.90;;;;;;5056919;28;20102;-44
2022/06/08 03:45:01;;;;;;;27.67;21.23;;;12.10;99.90;;;;;;5053106;28;20057;-43
2022/06/08 03:47:33;;;;;;;33.33;21.10;;;12.10;99.90;;;;;;5054311;28;20502;-44
2022/06/08 03:50:00;;;;;;;37.85;21.98;;;12.10;99.90;;;;;;5053029;28;20052;-44
2022/06/08 03:52:29;;;;;;;27.80;20.40;;;12.20;99.90;;;;;;5067908;28;20048;-43
2022/06/08 03:54:58;;;;;;;31.50;21.80;;;12.20;99.90;;;;;;5061472;28;20049;-43
2022/06/08 03:57:25;;;;;;;32.08;20.92;;;12.30;99.90;;;;;;5086639;28;20056;-43
2022/06/08 03:59:52;;;;;;;33.13;21.88;;;12.30;99.90;;;;;;5086299;28;20052;-44
2022/06/08 04:02:19;;;;;;;30.98;22.73;;;12.30;99.90;;;;;;5063846;28;20128;-43
2022/06/08 04:04:47;;;;;;;38.28;22.95;;;12.40;99.90;;;;;;5057117;28;20485;-44
2022/06/08 04:07:14;;;;;;;28.80;21.42;;;12.50;99.90;;;;;;5059414;28;20110;-43
2022/06/08 04:09:41;;;;;;;34.33;22.70;;;12.50;99.90;;;;;;5054382;28;20048;-44
2022/06/08 04:12:08;;;;;;;34.38;23.38;;;12.50;99.90;;;;;;5063523;28;20550;-44
2022/06/08 04:14:35;;;;;;;33.65;22.85;;;12.60;99.90;;;;;;5058969;28;20056;-44
2022/06/08 04:17:02;;;;;;;36.85;22.25;;;12.60;99.90;;;;;;5081633;28;20044;-43
2022/06/08 04:19:29;;;;;;;35.58;23.02;;;12.70;99.90;;;;;;5061825;28;20050;-43
2022/06/08 04:21:57;;;;;;;31.00;21.98;;;12.70;99.90;;;;;;5064467;28;20076;-44
2022/06/08 04:24:24;;;;;;;37.45;23.90;;;12.70;99.90;;;;;;5071646;28;20084;-44
2022/06/08 04:26:51;;;;;;;36.38;24.30;;;12.80;99.90;;;;;;5053134;28;20551;-44
2022/06/08 04:29:18;;;;;;;35.45;24.45;;;12.80;99.90;;;;;;5053224;28;20489;-44
2022/06/08 04:31:45;;;;;;;36.00;23.60;;;12.80;99.90;;;;;;5070859;28;20127;-43
2022/06/08 04:34:12;;;;;;;40.33;24.17;;;12.90;99.90;;;;;;5054503;28;20076;-43
2022/06/08 04:36:39;;;;;;;36.25;23.95;;;12.90;99.90;;;;;;5056944;28;20052;-44
2022/06/08 04:39:08;;;;;;;39.63;23.92;;;13.00;99.90;;;;;;5054648;28;20052;-44
2022/06/08 04:41:35;;;;;;;37.88;25.77;;;13.00;99.90;;;;;;5053644;28;20634;-44
2022/06/08 04:44:02;;;;;;;34.28;23.27;;;13.00;99.90;;;;;;5066324;28;20505;-43
2022/06/08 04:46:29;;;;;;;37.28;25.73;;;13.00;99.90;;;;;;5071812;28;20806;-44
2022/06/08 04:48:56;;;;;;;38.67;25.52;;;13.10;99.90;;;;;;5063988;28;20052;-44
2022/06/08 04:51:22;;;;;;;39.55;26.55;;;13.10;99.90;;;;;;5065927;28;20131;-43
2022/06/08 04:53:49;;;;;;;39.53;26.98;;;13.20;99.90;;;;;;5066852;28;20083;-43
2022/06/08 04:56:18;;;;;;;37.88;25.80;;;13.20;99.90;;;;;;5078586;28;20098;-44
2022/06/08 04:58:44;;;;;;;41.92;26.73;;;13.30;99.90;;;;;;5072211;28;20052;-44
2022/06/08 05:01:11;;;;;;;38.92;26.25;;;13.30;99.90;;;;;;5071717;28;20045;-44
2022/06/08 05:03:39;;;;;;;35.15;25.95;;;13.30;99.90;;;;;;5067139;28;20048;-44
2022/06/08 05:06:06;;;;;;;34.45;25.48;;;13.40;99.90;;;;;;5056945;28;20503;-43
2022/06/08 05:08:34;;;;;;;40.80;26.65;;;13.40;99.90;;;;;;5064526;28;20099;-43
2022/06/08 05:11:04;;;;;;;36.30;26.27;;;13.50;99.90;;;;;;5062831;28;20091;-43
2022/06/08 05:13:33;;;;;;;41.13;26.05;;;13.50;99.90;;;;;;5072854;28;20452;-43
2022/06/08 05:16:00;;;;;;;38.50;26.88;;;13.60;99.90;;;;;;5069935;28;20134;-43
2022/06/08 05:18:26;;;;;;;38.45;25.80;;;13.60;99.90;;;;;;5073344;28;20601;-44
2022/06/08 05:20:54;;;;;;;34.80;25.50;;;13.70;99.90;;;;;;5073418;28;20088;-43
2022/06/08 05:23:22;;;;;;;37.97;25.65;;;13.70;99.90;;;;;;5063118;28;20382;-43
2022/06/08 05:25:49;;;;;;;37.28;25.00;;;13.80;99.90;;;;;;5079561;28;20090;-43
2022/06/08 05:28:16;;;;;;;35.17;24.35;;;13.90;99.90;;;;;;5093652;28;20052;-44
2022/06/08 05:30:44;;;;;;;39.17;27.17;;;14.00;99.90;;;;;;5070109;28;20110;-44
2022/06/08 05:33:11;;;;;;;35.25;25.48;;;14.00;99.90;;;;;;5073256;28;20048;-43
2022/06/08 05:35:38;;;;;;;33.17;25.10;;;14.10;99.90;;;;;;5072149;28;20063;-43
2022/06/08 05:38:06;;;;;;;33.88;24.33;;;14.10;99.90;;;;;;5071772;28;20429;-43
2022/06/08 05:40:33;;;;;;;34.13;24.02;;;14.20;99.90;;;;;;5073058;28;20053;-43
2022/06/08 05:43:00;;;;;;;31.15;22.50;;;14.30;99.90;;;;;;5073082;28;20499;-44
2022/06/08 05:45:28;;;;;;;35.40;22.60;;;14.30;99.90;;;;;;5071836;28;20052;-44
2022/06/08 05:47:56;;;;;;;36.25;23.80;;;14.40;99.90;;;;;;5073025;28;20095;-43
2022/06/08 05:50:23;;;;;;;31.40;23.63;;;14.40;99.90;;;;;;5072850;28;20488;-43
2022/06/08 05:52:50;;;;;;;32.50;23.17;;;14.60;99.90;;;;;;5071389;28;20049;-44
2022/06/08 05:55:17;;;;;;;31.98;22.13;;;14.60;99.90;;;;;;5071647;28;20086;-43
2022/06/08 05:57:44;;;;;;;24.80;20.15;;;14.70;99.90;;;;;;5071646;28;20111;-43
2022/06/08 06:00:14;;;;;;;28.83;20.98;;;14.80;99.90;;;;;;5071783;28;20489;-43
2022/06/08 06:02:40;;;;;;;28.45;21.13;;;14.90;99.90;;;;;;5072699;28;20121;-44
2022/06/08 06:05:10;;;;;;;30.23;19.75;;;15.00;99.90;;;;;;5071608;28;20080;-43
2022/06/08 06:07:38;;;;;;;26.73;18.92;;;15.00;99.90;;;;;;5071448;28;20492;-43
2022/06/08 06:10:05;;;;;;;26.58;18.98;;;15.10;99.90;;;;;;5072849;28;20064;-44
2022/06/08 06:12:32;;;;;;;21.13;17.70;;;15.20;99.90;;;;;;5071796;28;20484;-44
2022/06/08 06:15:01;;;;;;;24.02;17.65;;;15.30;99.90;;;;;;5071595;28;20135;-43
2022/06/08 06:17:28;;;;;;;25.65;18.08;;;15.30;99.90;;;;;;5071388;28;20051;-43
2022/06/08 06:19:54;;;;;;;24.63;17.73;;;15.40;99.90;;;;;;5072686;28;20445;-44
2022/06/08 06:22:22;;;;;;;26.33;18.60;;;15.40;99.90;;;;;;5071730;28;20094;-43
2022/06/08 06:24:49;;;;;;;27.00;18.67;;;15.60;99.90;;;;;;5071383;28;20143;-43
2022/06/08 06:27:16;;;;;;;23.55;18.70;;;15.70;99.90;;;;;;5071628;28;20083;-44
2022/06/08 06:29:43;;;;;;;24.10;18.85;;;15.80;99.90;;;;;;5071537;28;20053;-43
2022/06/08 06:32:12;;;;;;;29.25;19.77;;;16.00;99.90;;;;;;5072398;28;20501;-43
2022/06/08 06:34:39;;;;;;;24.95;18.63;;;16.10;99.90;;;;;;5072436;28;20048;-44
2022/06/08 06:37:06;;;;;;;27.88;18.75;;;16.20;99.90;;;;;;5070959;28;20084;-44
2022/06/08 06:39:34;;;;;;;23.65;18.30;;;16.40;99.90;;;;;;5071616;28;20057;-44
2022/06/08 06:42:01;;;;;;;23.92;17.00;;;16.50;99.90;;;;;;5072529;28;20641;-44
2022/06/08 06:44:28;;;;;;;19.20;15.43;;;16.70;99.90;;;;;;5072297;28;20049;-43
2022/06/08 06:46:55;;;;;;;20.65;15.80;;;16.90;99.90;;;;;;5071294;28;20145;-43
2022/06/08 06:49:22;;;;;;;17.70;14.35;;;17.10;99.90;;;;;;5072239;28;20485;-43
2022/06/08 06:51:50;;;;;;;18.88;14.00;;;17.20;99.90;;;;;;5076025;28;20060;-43
2022/06/08 06:54:17;;;;;;;18.52;13.93;;;17.30;99.90;;;;;;5075864;28;20067;-44
2022/06/08 06:56:46;;;;;;;16.30;12.98;;;17.40;99.90;;;;;;5075205;28;20483;-44
2022/06/08 06:59:12;;;;;;;17.38;12.70;;;17.60;99.90;;;;;;5075125;28;20053;-44
2022/06/08 07:01:41;;;;;;;14.60;11.50;;;17.70;99.90;;;;;;5074712;28;20048;-44
2022/06/08 07:04:08;;;;;;;17.30;11.73;;;17.80;99.90;;;;;;5074841;28;20056;-43
2022/06/08 07:06:34;;;;;;;14.20;10.38;;;17.90;99.90;;;;;;5076230;28;20113;-43
2022/06/08 07:09:01;;;;;;;15.32;10.82;;;18.10;99.90;;;;;;5076018;28;20086;-43
2022/06/08 07:11:35;;;;;;;12.85;10.27;;;18.20;99.90;;;;;;5075169;28;20048;-43
2022/06/08 07:14:05;;;;;;;12.63;9.10;;;18.20;99.90;;;;;;5074676;28;20470;-44
2022/06/08 07:16:32;;;;;;;10.88;8.10;;;18.30;99.90;;;;;;5064076;28;20110;-44
2022/06/08 07:18:59;;;;;;;9.55;7.55;;;18.40;99.90;;;;;;5054402;28;20052;-44
2022/06/08 07:21:26;;;;;;;10.82;7.78;;;18.50;99.90;;;;;;5054650;28;20049;-44
2022/06/08 07:23:53;;;;;;;9.88;6.65;;;18.60;99.90;;;;;;5054657;28;20102;-44
2022/06/08 07:26:20;;;;;;;9.27;6.80;;;18.70;99.90;;;;;;5054435;28;20053;-44
2022/06/08 07:28:46;;;;;;;9.55;6.03;;;18.80;99.90;;;;;;5054509;28;20049;-44
2022/06/08 07:31:15;;;;;;;7.43;5.43;;;18.90;99.90;;;;;;5055532;28;20106;-44
2022/06/08 07:33:41;;;;;;;8.90;5.88;;;18.90;99.90;;;;;;5054338;28;20124;-43
2022/06/08 07:36:09;;;;;;;10.55;6.32;;;18.90;99.90;;;;;;5054278;28;20060;-43
2022/06/08 07:38:35;;;;;;;9.05;5.75;;;18.90;99.90;;;;;;5055428;28;20482;-43
2022/06/08 07:41:02;;;;;;;9.40;5.38;;;18.90;99.90;;;;;;5054365;28;20102;-44
2022/06/08 07:43:29;;;;;;;9.43;5.40;;;18.90;99.90;;;;;;5055297;28;20244;-43
2022/06/08 07:45:56;;;;;;;7.70;5.30;;;18.90;99.90;;;;;;5074717;28;20052;-43
2022/06/08 07:51:08;;;;;;;6.18;5.00;;;19.10;99.90;;;;;;5073991;28;20056;-43
2022/06/08 07:53:35;;;;;;;5.97;4.68;;;19.20;99.90;;;;;;5075259;28;20429;-43
2022/06/08 07:56:02;;;;;;;5.90;3.90;;;19.30;99.90;;;;;;5074725;28;20409;-43
2022/06/08 07:58:29;;;;;;;6.25;4.68;;;19.50;99.90;;;;;;5074981;28;20094;-43
2022/06/08 08:00:57;;;;;;;7.85;4.88;;;19.50;99.90;;;;;;5072853;28;20059;-43
2022/06/08 08:03:25;;;;;;;7.10;3.90;;;19.60;99.90;;;;;;5073995;28;20144;-43
2022/06/08 08:05:52;;;;;;;9.55;4.40;;;19.60;99.90;;;;;;5074316;28;20177;-43
2022/06/08 08:08:19;;;;;;;6.45;3.90;;;19.60;99.90;;;;;;5073832;28;20080;-43
2022/06/08 08:10:46;;;;;;;10.35;3.65;;;19.70;99.90;;;;;;5074963;28;20105;-43
2022/06/08 08:13:13;;;;;;;8.23;3.83;;;19.80;99.90;;;;;;5073750;28;20048;-44
2022/06/08 08:15:40;;;;;;;6.35;3.97;;;20.00;99.90;;;;;;5074473;28;20102;-44
2022/06/08 08:18:07;;;;;;;5.43;3.33;;;20.20;99.90;;;;;;5074591;28;20131;-44
2022/06/08 08:20:36;;;;;;;6.13;2.63;;;20.20;99.90;;;;;;5074724;28;20048;-43
2022/06/08 08:23:03;;;;;;;4.95;2.40;;;20.30;99.90;;;;;;5073500;28;20088;-44
2022/06/08 08:25:30;;;;;;;4.97;2.50;;;20.50;99.90;;;;;;5074560;28;20055;-44
2022/06/08 08:27:57;;;;;;;5.88;2.80;;;20.50;99.70;;;;;;5074301;28;20560;-44
2022/06/08 08:30:26;;;;;;;7.15;3.20;;;20.60;99.40;;;;;;5073338;28;20048;-44
2022/06/08 08:32:53;;;;;;;4.72;2.47;;;20.70;99.20;;;;;;5074602;28;20078;-44
2022/06/08 08:35:21;;;;;;;4.32;2.70;;;20.80;99.60;;;;;;5073198;28;20052;-44
2022/06/08 08:37:49;;;;;;;6.43;3.17;;;20.90;99.20;;;;;;5073230;28;20086;-44
2022/06/08 08:40:25;;;;;;;7.40;3.30;;;20.90;98.90;;;;;;5074120;28;20091;-44
2022/06/08 08:42:52;;;;;;;7.60;2.72;;;21.00;98.10;;;;;;5074152;28;20083;-44
2022/06/08 08:45:18;;;;;;;3.80;2.40;;;20.90;98.30;;;;;;5074154;28;20091;-44
2022/06/08 08:47:48;;;;;;;5.57;2.72;;;20.90;97.60;;;;;;5073170;28;20056;-44
2022/06/08 08:50:17;;;;;;;4.97;2.45;;;20.90;97.50;;;;;;5073855;28;20049;-44
2022/06/08 08:52:49;;;;;;;7.25;3.25;;;20.90;97.70;;;;;;5073536;28;20079;-44
2022/06/08 08:55:19;;;;;;;5.75;4.07;;;21.00;98.10;;;;;;5074237;28;20052;-44
2022/06/08 08:57:57;;;;;;;6.20;3.58;;;21.20;97.70;;;;;;5072506;28;20049;-44
2022/06/08 09:00:29;;;;;;;8.00;3.88;;;21.30;97.80;;;;;;5074111;28;20450;-44
2022/06/08 09:05:40;;;;;;;7.30;3.63;;;21.40;97.60;;;;;;5072742;28;20540;-44
2022/06/08 09:08:10;;;;;;;8.65;4.32;;;21.50;97.80;;;;;;5072465;28;20114;-44
2022/06/08 09:10:37;;;;;;;7.35;4.78;;;21.50;96.90;;;;;;5072776;28;20135;-44
2022/06/08 09:13:04;;;;;;;7.13;3.67;;;21.60;97.30;;;;;;5072315;28;20045;-44
2022/06/08 09:15:46;;;;;;;5.72;4.18;;;21.70;96.80;;;;;;5072510;28;20086;-44
2022/06/08 09:18:33;;;;;;;11.15;4.25;;;21.80;97.30;;;;;;5072050;28;20106;-44
2022/06/08 09:20:59;;;;;;;8.65;4.03;;;21.90;97.10;;;;;;5072504;28;20400;-44
2022/06/08 09:23:40;;;;;;;6.90;4.13;;;21.90;96.80;;;;;;5073045;28;20048;-44
2022/06/08 09:26:10;;;;;;;4.83;3.37;;;21.90;95.10;;;;;;5073348;28;20053;-44
2022/06/08 09:28:37;;;;;;;5.72;3.50;;;21.80;96.60;;;;;;5072372;28;20404;-44
2022/06/08 09:31:04;;;;;;;5.32;3.30;;;21.80;96.70;;;;;;5072116;28;20106;-44
2022/06/08 09:33:34;;;;;;;5.50;3.20;;;21.60;96.10;;;;;;5072931;28;20098;-44
2022/06/08 09:36:02;;;;;;;4.85;3.30;;;21.60;96.10;;;;;;5073261;28;20596;-44
2022/06/08 09:38:30;;;;;;;6.50;3.20;;;21.60;96.40;;;;;;5071754;28;20135;-44
2022/06/08 09:41:01;;;;;;;8.63;3.90;;;21.70;96.70;;;;;;5072123;28;20118;-44
2022/06/08 09:43:44;;;;;;;5.90;3.30;;;21.80;96.30;;;;;;5073048;28;20052;-44
2022/06/08 09:46:14;;;;;;;4.18;3.20;;;21.80;96.40;;;;;;5071990;28;20088;-44
2022/06/08 09:51:58;;;;;;;7.38;4.50;;;22.10;95.50;;;;;;5071767;28;20299;-44
2022/06/08 09:54:28;;;;;;;7.78;4.40;;;22.10;95.40;;;;;;5071568;28;20102;-44
2022/06/08 09:57:11;;;;;;;5.37;3.83;;;22.10;95.50;;;;;;5071275;28;20485;-44
2022/06/08 09:59:47;;;;;;;8.10;3.78;;;22.00;94.80;;;;;;5071811;28;20364;-44
2022/06/08 10:02:18;;;;;;;6.22;3.42;;;22.00;95.10;;;;;;5071668;28;20045;-44
2022/06/08 10:04:54;;;;;;;8.52;3.17;;;22.00;95.30;;;;;;5072841;28;20125;-44
2022/06/08 10:07:21;;;;;;;4.30;3.17;;;22.10;94.60;;;;;;5072752;28;20117;-44
2022/06/08 10:10:23;;;;;;;6.60;2.70;;;22.10;94.50;;;;;;5071649;28;20207;-44
2022/06/08 10:12:57;;;;;;;6.43;4.05;;;22.30;95.00;;;;;;5069303;28;20480;-44
2022/06/08 10:15:26;;;;;;;5.15;3.35;;;22.30;94.20;;;;;;5071251;28;20158;-44
2022/06/08 10:17:55;;;;;;;6.82;2.92;;;22.30;94.10;;;;;;5072538;28;20102;-43
2022/06/08 10:20:29;;;;;;;7.05;3.22;;;22.30;93.80;;;;;;5072902;28;20044;-44
2022/06/08 10:22:57;;;;;;;5.05;3.22;;;22.20;93.70;;;;;;5071613;28;20056;-44
2022/06/08 10:25:31;;;;;;;5.30;3.33;;;22.20;93.80;;;;;;5071685;28;20094;-44
2022/06/08 10:28:02;;;;;;;8.57;4.38;;;22.30;93.80;;;;;;5071500;28;20102;-44
2022/06/08 10:30:31;;;;;;;6.17;3.33;;;22.50;93.40;;;;;;5071798;28;20102;-45
2022/06/08 10:33:00;;;;;;;9.07;3.25;;;22.50;94.00;;;;;;5072776;28;20044;-44
2022/06/08 10:35:31;;;;;;;5.45;3.75;;;22.60;93.50;;;;;;5071229;28;20133;-44
2022/06/08 10:37:58;;;;;;;6.85;3.45;;;22.70;93.60;;;;;;5071296;28;20049;-44
2022/06/08 10:40:26;;;;;;;5.22;2.90;;;22.80;93.30;;;;;;5071470;28;20084;-44
2022/06/08 10:42:53;;;;;;;6.68;3.53;;;22.90;92.20;;;;;;5072466;28;20099;-44
2022/06/08 10:45:38;;;;;;;5.78;2.70;;;22.90;91.60;;;;;;5072410;28;20048;-44
2022/06/08 10:48:34;;;;;;;8.23;4.57;;;23.20;92.70;;;;;;5072587;28;20080;-44
2022/06/08 10:51:35;;;;;;;8.15;4.50;;;23.40;91.50;;;;;;5070934;28;20503;-44
2022/06/08 10:57:00;;;;;;;8.27;4.25;;;23.90;91.30;;;;;;5029706;28;20049;-44
2022/06/08 10:59:28;;;;;;;7.13;4.20;;;24.00;91.50;;;;;;5029958;28;20140;-44
2022/06/08 11:02:18;;;;;;;8.85;4.05;;;24.10;91.10;;;;;;5048485;28;20102;-44
2022/06/08 11:04:58;;;;;;;12.23;4.22;;;24.20;90.50;;;;;;5071296;28;20491;-44
2022/06/08 11:07:27;;;;;;;9.43;4.80;;;24.20;90.30;;;;;;5070578;28;20368;-44
2022/06/08 11:10:03;;;;;;;9.98;4.40;;;24.10;90.50;;;;;;5070847;28;20476;-44
2022/06/08 11:12:50;;;;;;;5.40;4.10;;;24.00;90.40;;;;;;5071034;28;20048;-44
2022/06/08 11:15:30;;;;;;;9.20;4.28;;;23.90;91.20;;;;;;5072037;28;20052;-44
2022/06/08 11:18:01;;;;;;;6.43;3.85;;;23.80;90.70;;;;;;5062636;28;20512;-44
2022/06/08 11:20:30;;;;;;;7.75;3.70;;;23.60;91.20;;;;;;5055615;28;20049;-44
2022/06/08 11:22:59;;;;;;;5.25;3.22;;;23.60;90.90;;;;;;5050574;28;20072;-44
2022/06/08 11:25:27;;;;;;;7.22;2.92;;;23.50;90.30;;;;;;5065648;28;20102;-44
2022/06/08 11:28:36;;;;;;;6.50;3.33;;;23.40;90.90;;;;;;5051691;28;20493;-43
2022/06/08 11:31:03;;;;;;;6.97;3.38;;;23.40;91.10;;;;;;5042566;28;20053;-44
2022/06/08 11:34:03;;;;;;;7.35;3.67;;;23.30;91.30;;;;;;5065370;28;20101;-44
2022/06/08 11:37:01;;;;;;;6.20;3.55;;;23.20;90.70;;;;;;5052655;28;20055;-44
2022/06/08 11:39:30;;;;;;;7.45;3.03;;;23.00;90.60;;;;;;5054393;28;20045;-44
2022/06/08 11:41:59;;;;;;;8.75;3.30;;;22.90;91.60;;;;;;5060193;28;20052;-45
2022/06/08 11:44:31;;;;;;;5.00;2.80;;;22.80;91.40;;;;;;5058112;28;20049;-45
2022/06/08 11:47:04;;;;;;;5.38;3.33;;;22.70;92.20;;;;;;5057754;28;20389;-43
2022/06/08 11:49:39;;;;;;;5.65;1.50;;;22.60;92.40;;;;;;5069054;28;20094;-44
2022/06/08 11:52:24;;;;;;;2.00;0.90;;;22.50;91.10;;;;;;5056622;28;20421;-43
2022/06/08 11:55:00;;;;;;;5.85;1.35;;;22.20;91.80;;;;;;5052990;28;20488;-43
2022/06/08 11:57:27;;;;;;;8.05;1.67;;;22.00;92.30;;;;;;5067630;28;20114;-43
2022/06/08 11:59:54;;;;;;;18.30;2.92;;;21.90;93.50;;;;;;5056752;28;20080;-46
2022/06/08 12:02:22;;;;;;;10.55;2.33;;;21.70;94.70;;;;;;5073011;28;20439;-44
2022/06/08 12:04:52;;;;;;;5.75;1.67;;;21.50;95.60;;;;;;5074558;28;20496;-44
2022/06/08 12:07:47;;;;;;;12.73;1.60;;;21.30;96.30;;;;;;5066233;28;20049;-45
2022/06/08 12:10:16;;;;;;;7.20;1.38;;;21.20;96.60;;;;;;5055206;28;20041;-45
2022/06/08 12:12:44;;;;;;;5.10;1.33;;;21.00;97.30;;;;;;5057405;28;20049;-45
2022/06/08 12:15:44;;;;;;;4.03;1.00;;;20.90;97.70;;;;;;5062424;28;20484;-44
2022/06/08 12:18:39;;;;;;;8.70;2.03;;;20.90;98.00;;;;;;5063986;28;20049;-44
2022/06/08 12:21:27;;;;;;;6.57;1.65;;;20.80;98.40;;;;;;5061485;28;20072;-43
2022/06/08 12:24:00;;;;;;;7.40;1.70;;;20.70;98.80;;;;;;5062525;28;20489;-43
2022/06/08 12:26:28;;;;;;;6.40;1.70;;;20.60;98.60;;;;;;5063868;28;20074;-43
2022/06/08 12:29:04;;;;;;;5.90;1.27;;;20.50;98.70;;;;;;5057834;28;20045;-43
2022/06/08 12:31:32;;;;;;;6.80;1.85;;;20.40;99.00;;;;;;5056729;28;20053;-44
2022/06/08 12:34:26;;;;;;;5.53;1.38;;;20.20;99.30;;;;;;5059071;28;20047;-44
2022/06/08 12:36:55;;;;;;;4.15;1.10;;;20.00;99.30;;;;;;5063714;28;20049;-44
2022/06/08 12:39:25;;;;;;;8.73;2.15;;;19.80;99.90;;;;;;5058183;28;20458;-45
2022/06/08 12:41:54;;;;;;;5.47;2.15;;;19.70;99.90;;;;;;5051325;28;20125;-45
2022/06/08 12:44:22;;;;;;;5.07;2.28;;;19.50;99.90;;;;;;5058389;28;20056;-46
2022/06/08 12:46:51;;;;;;;5.75;2.05;;;19.50;99.90;;;;;;5062331;28;20076;-45
2022/06/08 12:49:19;;;;;;;5.55;1.92;;;19.60;99.90;;;;;;5064499;28;20132;-45
2022/06/08 12:51:59;;;;;;;10.05;2.40;;;19.70;99.90;;;;;;5067049;28;20048;-46
2022/06/08 12:54:29;;;;;;;7.03;2.13;;;19.70;99.90;;;;;;5067872;28;20052;-45
2022/06/08 12:56:58;;;;;;;6.50;3.35;;;19.70;99.90;;;;;;5086127;28;20084;-44
2022/06/08 12:59:26;;;;;;;7.30;3.47;;;19.80;99.90;;;;;;5052249;28;20057;-44
2022/06/08 13:01:55;;;;;;;9.75;3.97;;;19.80;99.90;;;;;;5053609;28;20095;-44
2022/06/08 13:04:23;;;;;;;10.30;3.67;;;19.80;99.90;;;;;;5054117;28;20413;-44
2022/06/08 13:06:49;;;;;;;6.40;3.60;;;19.80;99.90;;;;;;5052610;28;20044;-44
2022/06/08 13:09:19;;;;;;;6.53;3.83;;;19.80;99.90;;;;;;5060155;28;20052;-44
2022/06/08 13:11:47;;;;;;;6.70;3.40;;;19.90;99.90;;;;;;5056977;28;20412;-43